sensor_id;sensor_type;location;lat;lon;timestamp;P1;durP1;ratioP1;P2;durP2;ratioP2
19339;SDS011;9804;52.350;6.684;2023-12-20T00:00:51;12.97;;;3.43;;
19339;SDS011;9804;52.350;6.684;2023-12-20T00:03:16;16.80;;;3.50;;
19339;SDS011;9804;52.350;6.684;2023-12-20T00:05:42;12.10;;;5.37;;
19339;SDS011;9804;52.350;6.684;2023-12-20T00:08:07;14.30;;;4.30;;
19339;SDS011;9804;52.350;6.684;2023-12-20T00:10:32;15.33;;;3.97;;
19339;SDS011;9804;52.350;6.684;2023-12-20T00:12:58;18.30;;;3.57;;
19339;SDS011;9804;52.350;6.684;2023-12-20T00:15:23;18.37;;;3.40;;
19339;SDS011;9804;52.350;6.684;2023-12-20T00:17:49;20.87;;;3.10;;
19339;SDS011;9804;52.350;6.684;2023-12-20T00:20:14;10.27;;;3.10;;
19339;SDS011;9804;52.350;6.684;2023-12-20T00:22:40;12.47;;;3.00;;
19339;SDS011;9804;52.350;6.684;2023-12-20T00:25:05;12.27;;;2.60;;
19339;SDS011;9804;52.350;6.684;2023-12-20T00:27:31;16.67;;;3.30;;
19339;SDS011;9804;52.350;6.684;2023-12-20T00:29:57;17.67;;;3.80;;
19339;SDS011;9804;52.350;6.684;2023-12-20T00:32:22;18.93;;;3.17;;
19339;SDS011;9804;52.350;6.684;2023-12-20T00:34:48;14.10;;;2.50;;
19339;SDS011;9804;52.350;6.684;2023-12-20T00:37:13;13.37;;;2.60;;
19339;SDS011;9804;52.350;6.684;2023-12-20T00:39:39;10.37;;;2.63;;
19339;SDS011;9804;52.350;6.684;2023-12-20T00:42:04;13.27;;;3.27;;
19339;SDS011;9804;52.350;6.684;2023-12-20T00:44:30;10.53;;;2.50;;
19339;SDS011;9804;52.350;6.684;2023-12-20T00:46:55;18.17;;;3.10;;
19339;SDS011;9804;52.350;6.684;2023-12-20T00:49:21;21.07;;;3.37;;
19339;SDS011;9804;52.350;6.684;2023-12-20T00:51:46;14.80;;;2.47;;
19339;SDS011;9804;52.350;6.684;2023-12-20T00:54:12;14.27;;;2.70;;
19339;SDS011;9804;52.350;6.684;2023-12-20T00:56:38;14.00;;;2.57;;
19339;SDS011;9804;52.350;6.684;2023-12-20T00:59:04;21.07;;;3.00;;
19339;SDS011;9804;52.350;6.684;2023-12-20T01:01:29;9.07;;;3.13;;
19339;SDS011;9804;52.350;6.684;2023-12-20T01:03:55;20.73;;;4.20;;
19339;SDS011;9804;52.350;6.684;2023-12-20T01:06:20;19.07;;;3.83;;
19339;SDS011;9804;52.350;6.684;2023-12-20T01:08:46;15.67;;;4.67;;
19339;SDS011;9804;52.350;6.684;2023-12-20T01:11:11;21.23;;;4.50;;
19339;SDS011;9804;52.350;6.684;2023-12-20T01:13:36;20.77;;;4.67;;
19339;SDS011;9804;52.350;6.684;2023-12-20T01:16:02;22.70;;;4.77;;
19339;SDS011;9804;52.350;6.684;2023-12-20T01:18:28;19.30;;;5.13;;
19339;SDS011;9804;52.350;6.684;2023-12-20T01:20:54;15.13;;;4.70;;
19339;SDS011;9804;52.350;6.684;2023-12-20T01:23:19;18.83;;;5.00;;
19339;SDS011;9804;52.350;6.684;2023-12-20T01:25:44;23.97;;;5.57;;
19339;SDS011;9804;52.350;6.684;2023-12-20T01:28:10;23.17;;;5.70;;
19339;SDS011;9804;52.350;6.684;2023-12-20T01:30:35;22.63;;;6.27;;
19339;SDS011;9804;52.350;6.684;2023-12-20T01:33:01;20.53;;;5.93;;
19339;SDS011;9804;52.350;6.684;2023-12-20T01:35:26;21.90;;;6.10;;
19339;SDS011;9804;52.350;6.684;2023-12-20T01:37:52;24.40;;;5.27;;
19339;SDS011;9804;52.350;6.684;2023-12-20T01:40:21;22.43;;;5.83;;
19339;SDS011;9804;52.350;6.684;2023-12-20T01:42:47;21.63;;;4.83;;
19339;SDS011;9804;52.350;6.684;2023-12-20T01:45:12;20.10;;;5.10;;
19339;SDS011;9804;52.350;6.684;2023-12-20T01:47:38;22.00;;;4.67;;
19339;SDS011;9804;52.350;6.684;2023-12-20T01:50:04;26.77;;;4.80;;
19339;SDS011;9804;52.350;6.684;2023-12-20T01:52:32;19.27;;;4.23;;
19339;SDS011;9804;52.350;6.684;2023-12-20T01:54:59;21.57;;;3.97;;
19339;SDS011;9804;52.350;6.684;2023-12-20T01:57:27;19.63;;;4.77;;
19339;SDS011;9804;52.350;6.684;2023-12-20T01:59:53;19.97;;;4.40;;
19339;SDS011;9804;52.350;6.684;2023-12-20T02:02:19;23.17;;;3.87;;
19339;SDS011;9804;52.350;6.684;2023-12-20T02:04:45;20.83;;;4.10;;
19339;SDS011;9804;52.350;6.684;2023-12-20T02:07:11;27.93;;;4.57;;
19339;SDS011;9804;52.350;6.684;2023-12-20T02:09:36;17.97;;;3.30;;
19339;SDS011;9804;52.350;6.684;2023-12-20T02:12:03;16.23;;;3.20;;
19339;SDS011;9804;52.350;6.684;2023-12-20T02:14:29;18.87;;;3.20;;
19339;SDS011;9804;52.350;6.684;2023-12-20T02:16:55;18.87;;;3.77;;
19339;SDS011;9804;52.350;6.684;2023-12-20T02:19:21;14.83;;;3.53;;
19339;SDS011;9804;52.350;6.684;2023-12-20T02:21:46;20.13;;;3.57;;
19339;SDS011;9804;52.350;6.684;2023-12-20T02:24:12;15.37;;;3.17;;
19339;SDS011;9804;52.350;6.684;2023-12-20T02:26:37;10.77;;;3.37;;
19339;SDS011;9804;52.350;6.684;2023-12-20T02:29:03;24.00;;;3.90;;
19339;SDS011;9804;52.350;6.684;2023-12-20T02:31:28;20.60;;;3.07;;
19339;SDS011;9804;52.350;6.684;2023-12-20T02:33:54;17.80;;;2.90;;
19339;SDS011;9804;52.350;6.684;2023-12-20T02:36:19;19.00;;;3.60;;
19339;SDS011;9804;52.350;6.684;2023-12-20T02:38:45;18.30;;;3.83;;
19339;SDS011;9804;52.350;6.684;2023-12-20T02:41:10;17.03;;;3.27;;
19339;SDS011;9804;52.350;6.684;2023-12-20T02:43:36;21.83;;;3.13;;
19339;SDS011;9804;52.350;6.684;2023-12-20T02:46:02;25.40;;;3.73;;
19339;SDS011;9804;52.350;6.684;2023-12-20T02:48:27;18.27;;;2.87;;
19339;SDS011;9804;52.350;6.684;2023-12-20T02:50:53;28.33;;;4.33;;
19339;SDS011;9804;52.350;6.684;2023-12-20T02:53:19;17.33;;;2.97;;
19339;SDS011;9804;52.350;6.684;2023-12-20T02:55:45;24.03;;;3.50;;
19339;SDS011;9804;52.350;6.684;2023-12-20T02:58:10;20.93;;;3.03;;
19339;SDS011;9804;52.350;6.684;2023-12-20T03:00:35;23.43;;;2.83;;
19339;SDS011;9804;52.350;6.684;2023-12-20T03:03:01;25.13;;;4.10;;
19339;SDS011;9804;52.350;6.684;2023-12-20T03:05:26;17.53;;;2.70;;
19339;SDS011;9804;52.350;6.684;2023-12-20T03:07:52;17.63;;;2.80;;
19339;SDS011;9804;52.350;6.684;2023-12-20T03:10:18;20.20;;;3.00;;
19339;SDS011;9804;52.350;6.684;2023-12-20T03:12:44;23.10;;;3.20;;
19339;SDS011;9804;52.350;6.684;2023-12-20T03:15:10;16.67;;;3.27;;
19339;SDS011;9804;52.350;6.684;2023-12-20T03:17:35;20.90;;;2.90;;
19339;SDS011;9804;52.350;6.684;2023-12-20T03:20:01;24.77;;;3.40;;
19339;SDS011;9804;52.350;6.684;2023-12-20T03:22:27;18.73;;;3.63;;
19339;SDS011;9804;52.350;6.684;2023-12-20T03:24:52;12.13;;;3.20;;
19339;SDS011;9804;52.350;6.684;2023-12-20T03:27:17;21.93;;;3.80;;
19339;SDS011;9804;52.350;6.684;2023-12-20T03:29:43;17.13;;;3.30;;
19339;SDS011;9804;52.350;6.684;2023-12-20T03:32:08;24.70;;;4.27;;
19339;SDS011;9804;52.350;6.684;2023-12-20T03:34:34;23.57;;;3.53;;
19339;SDS011;9804;52.350;6.684;2023-12-20T03:36:59;20.90;;;3.43;;
19339;SDS011;9804;52.350;6.684;2023-12-20T03:39:25;23.77;;;3.23;;
19339;SDS011;9804;52.350;6.684;2023-12-20T03:41:50;17.30;;;3.20;;
19339;SDS011;9804;52.350;6.684;2023-12-20T03:44:16;22.10;;;3.13;;
19339;SDS011;9804;52.350;6.684;2023-12-20T03:46:41;23.37;;;3.43;;
19339;SDS011;9804;52.350;6.684;2023-12-20T03:49:06;18.47;;;4.10;;
19339;SDS011;9804;52.350;6.684;2023-12-20T03:51:32;23.67;;;3.90;;
19339;SDS011;9804;52.350;6.684;2023-12-20T03:53:57;18.87;;;3.40;;
19339;SDS011;9804;52.350;6.684;2023-12-20T03:56:23;16.67;;;3.37;;
19339;SDS011;9804;52.350;6.684;2023-12-20T03:58:48;21.73;;;3.67;;
19339;SDS011;9804;52.350;6.684;2023-12-20T04:01:13;22.87;;;4.13;;
19339;SDS011;9804;52.350;6.684;2023-12-20T04:03:39;22.40;;;3.97;;
19339;SDS011;9804;52.350;6.684;2023-12-20T04:06:05;25.53;;;4.53;;
19339;SDS011;9804;52.350;6.684;2023-12-20T04:08:31;20.70;;;3.07;;
19339;SDS011;9804;52.350;6.684;2023-12-20T04:10:56;28.20;;;4.00;;
19339;SDS011;9804;52.350;6.684;2023-12-20T04:13:21;28.77;;;3.93;;
19339;SDS011;9804;52.350;6.684;2023-12-20T04:15:47;24.03;;;3.63;;
19339;SDS011;9804;52.350;6.684;2023-12-20T04:18:15;23.27;;;3.27;;
19339;SDS011;9804;52.350;6.684;2023-12-20T04:20:40;24.40;;;3.57;;
19339;SDS011;9804;52.350;6.684;2023-12-20T04:23:06;22.70;;;4.03;;
19339;SDS011;9804;52.350;6.684;2023-12-20T04:25:31;24.73;;;4.23;;
19339;SDS011;9804;52.350;6.684;2023-12-20T04:27:56;22.93;;;3.20;;
19339;SDS011;9804;52.350;6.684;2023-12-20T04:30:22;21.50;;;3.80;;
19339;SDS011;9804;52.350;6.684;2023-12-20T04:32:47;20.07;;;3.23;;
19339;SDS011;9804;52.350;6.684;2023-12-20T04:35:13;25.23;;;4.10;;
19339;SDS011;9804;52.350;6.684;2023-12-20T04:37:38;26.23;;;3.67;;
19339;SDS011;9804;52.350;6.684;2023-12-20T04:40:04;25.33;;;4.00;;
19339;SDS011;9804;52.350;6.684;2023-12-20T04:42:30;26.47;;;4.00;;
19339;SDS011;9804;52.350;6.684;2023-12-20T04:44:56;23.17;;;4.07;;
19339;SDS011;9804;52.350;6.684;2023-12-20T04:47:21;24.47;;;3.53;;
19339;SDS011;9804;52.350;6.684;2023-12-20T04:49:47;20.20;;;3.67;;
19339;SDS011;9804;52.350;6.684;2023-12-20T04:52:12;24.57;;;3.53;;
19339;SDS011;9804;52.350;6.684;2023-12-20T04:54:38;25.80;;;3.67;;
19339;SDS011;9804;52.350;6.684;2023-12-20T04:57:03;31.23;;;4.03;;
19339;SDS011;9804;52.350;6.684;2023-12-20T04:59:29;30.57;;;4.67;;
19339;SDS011;9804;52.350;6.684;2023-12-20T05:01:54;29.33;;;3.60;;
19339;SDS011;9804;52.350;6.684;2023-12-20T05:04:20;25.53;;;3.73;;
19339;SDS011;9804;52.350;6.684;2023-12-20T05:06:45;23.00;;;4.10;;
19339;SDS011;9804;52.350;6.684;2023-12-20T05:09:10;23.50;;;3.23;;
19339;SDS011;9804;52.350;6.684;2023-12-20T05:11:36;26.77;;;3.93;;
19339;SDS011;9804;52.350;6.684;2023-12-20T05:14:01;21.50;;;3.73;;
19339;SDS011;9804;52.350;6.684;2023-12-20T05:16:27;22.37;;;3.60;;
19339;SDS011;9804;52.350;6.684;2023-12-20T05:18:52;18.07;;;4.00;;
19339;SDS011;9804;52.350;6.684;2023-12-20T05:21:18;25.27;;;3.50;;
19339;SDS011;9804;52.350;6.684;2023-12-20T05:23:43;30.87;;;3.70;;
19339;SDS011;9804;52.350;6.684;2023-12-20T05:26:09;33.03;;;5.23;;
19339;SDS011;9804;52.350;6.684;2023-12-20T05:28:34;24.87;;;4.10;;
19339;SDS011;9804;52.350;6.684;2023-12-20T05:30:59;21.87;;;3.37;;
19339;SDS011;9804;52.350;6.684;2023-12-20T05:33:25;24.83;;;3.83;;
19339;SDS011;9804;52.350;6.684;2023-12-20T05:35:50;22.83;;;3.90;;
19339;SDS011;9804;52.350;6.684;2023-12-20T05:38:16;23.50;;;4.23;;
19339;SDS011;9804;52.350;6.684;2023-12-20T05:40:41;27.13;;;3.57;;
19339;SDS011;9804;52.350;6.684;2023-12-20T05:43:07;22.90;;;3.53;;
19339;SDS011;9804;52.350;6.684;2023-12-20T05:45:32;25.80;;;4.17;;
19339;SDS011;9804;52.350;6.684;2023-12-20T05:47:58;29.97;;;4.13;;
19339;SDS011;9804;52.350;6.684;2023-12-20T05:50:23;25.50;;;3.73;;
19339;SDS011;9804;52.350;6.684;2023-12-20T05:52:49;23.50;;;3.30;;
19339;SDS011;9804;52.350;6.684;2023-12-20T05:55:15;26.53;;;3.40;;
19339;SDS011;9804;52.350;6.684;2023-12-20T05:57:40;23.80;;;4.03;;
19339;SDS011;9804;52.350;6.684;2023-12-20T06:00:08;19.77;;;3.30;;
19339;SDS011;9804;52.350;6.684;2023-12-20T06:02:34;19.50;;;3.27;;
19339;SDS011;9804;52.350;6.684;2023-12-20T06:05:01;22.87;;;3.57;;
19339;SDS011;9804;52.350;6.684;2023-12-20T06:07:27;33.40;;;3.77;;
19339;SDS011;9804;52.350;6.684;2023-12-20T06:09:53;21.37;;;3.40;;
19339;SDS011;9804;52.350;6.684;2023-12-20T06:12:18;26.50;;;3.53;;
19339;SDS011;9804;52.350;6.684;2023-12-20T06:14:44;25.60;;;4.03;;
19339;SDS011;9804;52.350;6.684;2023-12-20T06:17:09;27.87;;;4.57;;
19339;SDS011;9804;52.350;6.684;2023-12-20T06:19:34;30.13;;;4.10;;
19339;SDS011;9804;52.350;6.684;2023-12-20T06:22:00;19.43;;;3.37;;
19339;SDS011;9804;52.350;6.684;2023-12-20T06:24:25;21.47;;;3.57;;
19339;SDS011;9804;52.350;6.684;2023-12-20T06:26:53;27.20;;;3.77;;
19339;SDS011;9804;52.350;6.684;2023-12-20T06:29:21;21.50;;;3.13;;
19339;SDS011;9804;52.350;6.684;2023-12-20T06:31:46;24.00;;;3.27;;
19339;SDS011;9804;52.350;6.684;2023-12-20T06:34:12;21.30;;;3.63;;
19339;SDS011;9804;52.350;6.684;2023-12-20T06:36:37;23.67;;;3.57;;
19339;SDS011;9804;52.350;6.684;2023-12-20T06:39:03;20.55;;;3.58;;
19339;SDS011;9804;52.350;6.684;2023-12-20T06:41:29;20.10;;;3.37;;
19339;SDS011;9804;52.350;6.684;2023-12-20T06:43:55;26.43;;;3.10;;
19339;SDS011;9804;52.350;6.684;2023-12-20T06:46:20;23.67;;;3.67;;
19339;SDS011;9804;52.350;6.684;2023-12-20T06:48:46;25.70;;;3.23;;
19339;SDS011;9804;52.350;6.684;2023-12-20T06:51:13;21.73;;;3.33;;
19339;SDS011;9804;52.350;6.684;2023-12-20T06:53:40;26.10;;;3.67;;
19339;SDS011;9804;52.350;6.684;2023-12-20T06:56:05;29.93;;;3.43;;
19339;SDS011;9804;52.350;6.684;2023-12-20T06:58:32;24.37;;;3.30;;
19339;SDS011;9804;52.350;6.684;2023-12-20T07:00:58;25.87;;;3.70;;
19339;SDS011;9804;52.350;6.684;2023-12-20T07:03:23;23.47;;;3.77;;
19339;SDS011;9804;52.350;6.684;2023-12-20T07:05:48;28.03;;;3.70;;
19339;SDS011;9804;52.350;6.684;2023-12-20T07:08:14;26.13;;;3.70;;
19339;SDS011;9804;52.350;6.684;2023-12-20T07:10:40;22.37;;;3.23;;
19339;SDS011;9804;52.350;6.684;2023-12-20T07:13:06;23.83;;;3.37;;
19339;SDS011;9804;52.350;6.684;2023-12-20T07:15:32;19.10;;;3.17;;
19339;SDS011;9804;52.350;6.684;2023-12-20T07:17:58;20.97;;;3.23;;
19339;SDS011;9804;52.350;6.684;2023-12-20T07:20:25;24.17;;;3.67;;
19339;SDS011;9804;52.350;6.684;2023-12-20T07:22:51;30.20;;;4.10;;
19339;SDS011;9804;52.350;6.684;2023-12-20T07:25:16;20.57;;;3.60;;
19339;SDS011;9804;52.350;6.684;2023-12-20T07:27:42;27.37;;;3.53;;
19339;SDS011;9804;52.350;6.684;2023-12-20T07:30:07;20.53;;;4.03;;
19339;SDS011;9804;52.350;6.684;2023-12-20T07:32:33;25.87;;;4.07;;
19339;SDS011;9804;52.350;6.684;2023-12-20T07:34:58;23.83;;;3.90;;
19339;SDS011;9804;52.350;6.684;2023-12-20T07:37:24;18.77;;;3.40;;
19339;SDS011;9804;52.350;6.684;2023-12-20T07:39:49;28.00;;;3.83;;
19339;SDS011;9804;52.350;6.684;2023-12-20T07:42:15;23.00;;;2.92;;
19339;SDS011;9804;52.350;6.684;2023-12-20T07:44:40;22.77;;;4.17;;
19339;SDS011;9804;52.350;6.684;2023-12-20T07:47:06;22.33;;;3.50;;
19339;SDS011;9804;52.350;6.684;2023-12-20T07:49:31;22.00;;;3.40;;
19339;SDS011;9804;52.350;6.684;2023-12-20T07:51:57;21.93;;;3.30;;
19339;SDS011;9804;52.350;6.684;2023-12-20T07:54:22;21.38;;;2.72;;
19339;SDS011;9804;52.350;6.684;2023-12-20T07:56:48;25.27;;;3.60;;
19339;SDS011;9804;52.350;6.684;2023-12-20T07:59:14;28.50;;;3.40;;
19339;SDS011;9804;52.350;6.684;2023-12-20T08:01:39;19.27;;;3.45;;
19339;SDS011;9804;52.350;6.684;2023-12-20T08:04:05;26.57;;;3.13;;
19339;SDS011;9804;52.350;6.684;2023-12-20T08:06:30;26.27;;;4.03;;
19339;SDS011;9804;52.350;6.684;2023-12-20T08:08:56;17.93;;;3.10;;
19339;SDS011;9804;52.350;6.684;2023-12-20T08:11:22;26.17;;;3.90;;
19339;SDS011;9804;52.350;6.684;2023-12-20T08:13:47;15.83;;;2.83;;
19339;SDS011;9804;52.350;6.684;2023-12-20T08:16:13;27.90;;;3.53;;
19339;SDS011;9804;52.350;6.684;2023-12-20T08:18:40;21.45;;;3.25;;
19339;SDS011;9804;52.350;6.684;2023-12-20T08:21:06;25.52;;;4.20;;
19339;SDS011;9804;52.350;6.684;2023-12-20T08:23:33;23.98;;;4.18;;
19339;SDS011;9804;52.350;6.684;2023-12-20T08:26:03;22.43;;;4.27;;
19339;SDS011;9804;52.350;6.684;2023-12-20T08:28:32;28.30;;;4.17;;
19339;SDS011;9804;52.350;6.684;2023-12-20T08:30:58;22.60;;;3.40;;
19339;SDS011;9804;52.350;6.684;2023-12-20T08:33:23;18.30;;;3.27;;
19339;SDS011;9804;52.350;6.684;2023-12-20T08:35:49;23.33;;;3.80;;
19339;SDS011;9804;52.350;6.684;2023-12-20T08:38:14;23.73;;;3.28;;
19339;SDS011;9804;52.350;6.684;2023-12-20T08:40:41;25.08;;;4.20;;
19339;SDS011;9804;52.350;6.684;2023-12-20T08:43:07;22.27;;;3.45;;
19339;SDS011;9804;52.350;6.684;2023-12-20T08:45:32;22.13;;;3.63;;
19339;SDS011;9804;52.350;6.684;2023-12-20T08:47:58;24.67;;;3.83;;
19339;SDS011;9804;52.350;6.684;2023-12-20T08:50:24;23.53;;;3.93;;
19339;SDS011;9804;52.350;6.684;2023-12-20T08:52:50;18.33;;;3.73;;
19339;SDS011;9804;52.350;6.684;2023-12-20T08:55:16;21.85;;;3.05;;
19339;SDS011;9804;52.350;6.684;2023-12-20T08:57:43;18.38;;;3.22;;
19339;SDS011;9804;52.350;6.684;2023-12-20T09:00:09;25.80;;;3.60;;
19339;SDS011;9804;52.350;6.684;2023-12-20T09:02:34;24.13;;;3.42;;
19339;SDS011;9804;52.350;6.684;2023-12-20T09:05:03;20.97;;;3.77;;
19339;SDS011;9804;52.350;6.684;2023-12-20T09:07:29;29.23;;;3.80;;
19339;SDS011;9804;52.350;6.684;2023-12-20T09:09:56;30.83;;;4.80;;
19339;SDS011;9804;52.350;6.684;2023-12-20T09:12:23;30.77;;;5.15;;
19339;SDS011;9804;52.350;6.684;2023-12-20T09:14:50;23.40;;;3.93;;
19339;SDS011;9804;52.350;6.684;2023-12-20T09:17:17;22.60;;;4.93;;
19339;SDS011;9804;52.350;6.684;2023-12-20T09:19:43;28.43;;;5.27;;
19339;SDS011;9804;52.350;6.684;2023-12-20T09:22:09;26.30;;;4.43;;
19339;SDS011;9804;52.350;6.684;2023-12-20T09:24:34;20.57;;;3.90;;
19339;SDS011;9804;52.350;6.684;2023-12-20T09:27:00;21.00;;;3.90;;
19339;SDS011;9804;52.350;6.684;2023-12-20T09:29:26;29.50;;;4.50;;
19339;SDS011;9804;52.350;6.684;2023-12-20T09:31:51;30.80;;;4.87;;
19339;SDS011;9804;52.350;6.684;2023-12-20T09:34:17;25.60;;;4.60;;
19339;SDS011;9804;52.350;6.684;2023-12-20T09:36:42;28.27;;;4.73;;
19339;SDS011;9804;52.350;6.684;2023-12-20T09:39:15;23.43;;;4.27;;
19339;SDS011;9804;52.350;6.684;2023-12-20T09:41:44;23.10;;;4.40;;
19339;SDS011;9804;52.350;6.684;2023-12-20T09:44:13;25.70;;;4.40;;
19339;SDS011;9804;52.350;6.684;2023-12-20T09:46:43;32.10;;;5.03;;
19339;SDS011;9804;52.350;6.684;2023-12-20T09:49:09;22.90;;;4.13;;
19339;SDS011;9804;52.350;6.684;2023-12-20T09:51:35;32.83;;;4.93;;
19339;SDS011;9804;52.350;6.684;2023-12-20T09:54:03;30.93;;;4.63;;
19339;SDS011;9804;52.350;6.684;2023-12-20T09:56:29;30.67;;;4.93;;
19339;SDS011;9804;52.350;6.684;2023-12-20T09:58:55;34.33;;;5.43;;
19339;SDS011;9804;52.350;6.684;2023-12-20T10:01:21;29.30;;;5.80;;
19339;SDS011;9804;52.350;6.684;2023-12-20T10:03:48;28.65;;;5.20;;
19339;SDS011;9804;52.350;6.684;2023-12-20T10:06:16;29.08;;;5.25;;
19339;SDS011;9804;52.350;6.684;2023-12-20T10:08:42;30.33;;;4.85;;
19339;SDS011;9804;52.350;6.684;2023-12-20T10:11:07;27.27;;;4.90;;
19339;SDS011;9804;52.350;6.684;2023-12-20T10:13:33;28.23;;;5.03;;
19339;SDS011;9804;52.350;6.684;2023-12-20T10:15:59;35.33;;;5.00;;
19339;SDS011;9804;52.350;6.684;2023-12-20T10:18:24;26.33;;;4.50;;
19339;SDS011;9804;52.350;6.684;2023-12-20T10:20:50;27.92;;;4.18;;
19339;SDS011;9804;52.350;6.684;2023-12-20T10:23:15;25.17;;;4.10;;
19339;SDS011;9804;52.350;6.684;2023-12-20T10:25:41;23.67;;;3.92;;
19339;SDS011;9804;52.350;6.684;2023-12-20T10:30:44;31.63;;;3.88;;
19339;SDS011;9804;52.350;6.684;2023-12-20T10:33:09;25.48;;;3.72;;
19339;SDS011;9804;52.350;6.684;2023-12-20T10:35:35;31.90;;;4.00;;
19339;SDS011;9804;52.350;6.684;2023-12-20T10:38:03;19.70;;;3.90;;
19339;SDS011;9804;52.350;6.684;2023-12-20T10:40:30;23.60;;;3.95;;
19339;SDS011;9804;52.350;6.684;2023-12-20T10:42:56;24.88;;;3.78;;
19339;SDS011;9804;52.350;6.684;2023-12-20T10:45:24;27.15;;;4.70;;
19339;SDS011;9804;52.350;6.684;2023-12-20T10:47:50;29.55;;;4.10;;
19339;SDS011;9804;52.350;6.684;2023-12-20T10:50:16;23.55;;;3.88;;
19339;SDS011;9804;52.350;6.684;2023-12-20T10:52:43;21.33;;;3.30;;
19339;SDS011;9804;52.350;6.684;2023-12-20T10:55:10;19.93;;;4.00;;
19339;SDS011;9804;52.350;6.684;2023-12-20T10:57:36;21.73;;;3.58;;
19339;SDS011;9804;52.350;6.684;2023-12-20T11:00:01;19.58;;;4.20;;
19339;SDS011;9804;52.350;6.684;2023-12-20T11:02:33;20.00;;;3.33;;
19339;SDS011;9804;52.350;6.684;2023-12-20T11:05:22;18.15;;;3.45;;
19339;SDS011;9804;52.350;6.684;2023-12-20T11:08:13;26.63;;;3.53;;
19339;SDS011;9804;52.350;6.684;2023-12-20T11:10:55;26.33;;;4.30;;
19339;SDS011;9804;52.350;6.684;2023-12-20T11:13:32;31.30;;;4.57;;
19339;SDS011;9804;52.350;6.684;2023-12-20T11:16:01;21.93;;;4.00;;
19339;SDS011;9804;52.350;6.684;2023-12-20T11:18:29;27.47;;;4.30;;
19339;SDS011;9804;52.350;6.684;2023-12-20T11:21:01;20.63;;;4.47;;
19339;SDS011;9804;52.350;6.684;2023-12-20T11:23:30;31.85;;;4.68;;
19339;SDS011;9804;52.350;6.684;2023-12-20T11:25:58;22.08;;;3.58;;
19339;SDS011;9804;52.350;6.684;2023-12-20T11:28:24;28.55;;;4.00;;
19339;SDS011;9804;52.350;6.684;2023-12-20T11:33:21;22.27;;;3.67;;
19339;SDS011;9804;52.350;6.684;2023-12-20T11:35:48;6.63;;;1.40;;
19339;SDS011;9804;52.350;6.684;2023-12-20T11:38:14;12.17;;;2.07;;
19339;SDS011;9804;52.350;6.684;2023-12-20T11:40:43;7.80;;;1.83;;
19339;SDS011;9804;52.350;6.684;2023-12-20T11:43:09;8.47;;;1.37;;
19339;SDS011;9804;52.350;6.684;2023-12-20T11:45:35;14.70;;;1.30;;
19339;SDS011;9804;52.350;6.684;2023-12-20T11:48:01;8.30;;;1.33;;
19339;SDS011;9804;52.350;6.684;2023-12-20T11:50:27;10.93;;;1.70;;
19339;SDS011;9804;52.350;6.684;2023-12-20T11:52:54;5.50;;;1.63;;
19339;SDS011;9804;52.350;6.684;2023-12-20T11:55:21;7.40;;;1.40;;
19339;SDS011;9804;52.350;6.684;2023-12-20T11:57:47;10.20;;;1.90;;
19339;SDS011;9804;52.350;6.684;2023-12-20T12:00:13;11.63;;;1.87;;
19339;SDS011;9804;52.350;6.684;2023-12-20T12:02:39;13.40;;;1.83;;
19339;SDS011;9804;52.350;6.684;2023-12-20T12:05:05;10.23;;;1.87;;
19339;SDS011;9804;52.350;6.684;2023-12-20T12:07:31;12.10;;;2.00;;
19339;SDS011;9804;52.350;6.684;2023-12-20T12:09:57;9.17;;;1.70;;
19339;SDS011;9804;52.350;6.684;2023-12-20T12:12:23;20.07;;;2.00;;
19339;SDS011;9804;52.350;6.684;2023-12-20T12:14:50;10.77;;;1.93;;
19339;SDS011;9804;52.350;6.684;2023-12-20T12:17:16;12.15;;;1.75;;
19339;SDS011;9804;52.350;6.684;2023-12-20T12:19:41;7.93;;;1.77;;
19339;SDS011;9804;52.350;6.684;2023-12-20T12:22:08;8.60;;;1.65;;
19339;SDS011;9804;52.350;6.684;2023-12-20T12:24:44;6.90;;;1.73;;
19339;SDS011;9804;52.350;6.684;2023-12-20T12:27:11;7.30;;;1.70;;
19339;SDS011;9804;52.350;6.684;2023-12-20T12:29:38;10.67;;;1.50;;
19339;SDS011;9804;52.350;6.684;2023-12-20T12:32:07;7.45;;;1.20;;
19339;SDS011;9804;52.350;6.684;2023-12-20T12:34:34;8.47;;;1.67;;
19339;SDS011;9804;52.350;6.684;2023-12-20T12:37:00;11.07;;;1.40;;
19339;SDS011;9804;52.350;6.684;2023-12-20T12:39:26;11.77;;;1.37;;
19339;SDS011;9804;52.350;6.684;2023-12-20T12:41:52;8.95;;;1.42;;
19339;SDS011;9804;52.350;6.684;2023-12-20T12:44:18;9.77;;;1.43;;
19339;SDS011;9804;52.350;6.684;2023-12-20T12:46:47;4.20;;;1.40;;
19339;SDS011;9804;52.350;6.684;2023-12-20T12:49:16;10.47;;;1.90;;
19339;SDS011;9804;52.350;6.684;2023-12-20T12:51:41;7.72;;;1.10;;
19339;SDS011;9804;52.350;6.684;2023-12-20T12:54:08;10.27;;;1.80;;
19339;SDS011;9804;52.350;6.684;2023-12-20T12:56:34;8.13;;;1.20;;
19339;SDS011;9804;52.350;6.684;2023-12-20T12:59:01;12.90;;;2.00;;
19339;SDS011;9804;52.350;6.684;2023-12-20T13:01:26;6.90;;;1.10;;
19339;SDS011;9804;52.350;6.684;2023-12-20T13:03:52;8.67;;;1.23;;
19339;SDS011;9804;52.350;6.684;2023-12-20T13:06:17;9.40;;;1.40;;
19339;SDS011;9804;52.350;6.684;2023-12-20T13:08:42;13.30;;;1.50;;
19339;SDS011;9804;52.350;6.684;2023-12-20T13:11:09;17.07;;;1.93;;
19339;SDS011;9804;52.350;6.684;2023-12-20T13:13:34;8.67;;;1.67;;
19339;SDS011;9804;52.350;6.684;2023-12-20T13:16:00;10.57;;;1.77;;
19339;SDS011;9804;52.350;6.684;2023-12-20T13:18:26;7.80;;;1.80;;
19339;SDS011;9804;52.350;6.684;2023-12-20T13:20:51;13.32;;;1.92;;
19339;SDS011;9804;52.350;6.684;2023-12-20T13:23:17;7.67;;;2.13;;
19339;SDS011;9804;52.350;6.684;2023-12-20T13:25:45;11.88;;;2.10;;
19339;SDS011;9804;52.350;6.684;2023-12-20T13:28:11;11.77;;;2.03;;
19339;SDS011;9804;52.350;6.684;2023-12-20T13:30:37;11.93;;;2.20;;
19339;SDS011;9804;52.350;6.684;2023-12-20T13:33:04;8.02;;;1.67;;
19339;SDS011;9804;52.350;6.684;2023-12-20T13:35:30;16.73;;;2.45;;
19339;SDS011;9804;52.350;6.684;2023-12-20T13:37:56;11.00;;;2.97;;
19339;SDS011;9804;52.350;6.684;2023-12-20T13:40:22;11.25;;;2.70;;
19339;SDS011;9804;52.350;6.684;2023-12-20T13:42:48;9.87;;;2.80;;
19339;SDS011;9804;52.350;6.684;2023-12-20T13:45:13;9.73;;;2.70;;
19339;SDS011;9804;52.350;6.684;2023-12-20T13:47:39;15.32;;;2.50;;
19339;SDS011;9804;52.350;6.684;2023-12-20T13:50:04;15.65;;;2.70;;
19339;SDS011;9804;52.350;6.684;2023-12-20T13:52:30;12.43;;;3.00;;
19339;SDS011;9804;52.350;6.684;2023-12-20T13:54:56;12.80;;;3.08;;
19339;SDS011;9804;52.350;6.684;2023-12-20T13:57:21;13.82;;;2.70;;
19339;SDS011;9804;52.350;6.684;2023-12-20T13:59:47;14.32;;;2.90;;
19339;SDS011;9804;52.350;6.684;2023-12-20T14:02:13;14.15;;;3.10;;
19339;SDS011;9804;52.350;6.684;2023-12-20T14:04:38;19.90;;;3.17;;
19339;SDS011;9804;52.350;6.684;2023-12-20T14:07:04;16.20;;;2.88;;
19339;SDS011;9804;52.350;6.684;2023-12-20T14:09:30;18.08;;;3.40;;
19339;SDS011;9804;52.350;6.684;2023-12-20T14:11:55;14.90;;;3.47;;
19339;SDS011;9804;52.350;6.684;2023-12-20T14:14:21;20.65;;;3.42;;
19339;SDS011;9804;52.350;6.684;2023-12-20T14:16:46;13.95;;;3.50;;
19339;SDS011;9804;52.350;6.684;2023-12-20T14:19:12;24.20;;;4.30;;
19339;SDS011;9804;52.350;6.684;2023-12-20T14:21:37;23.15;;;3.83;;
19339;SDS011;9804;52.350;6.684;2023-12-20T14:24:03;25.48;;;4.10;;
19339;SDS011;9804;52.350;6.684;2023-12-20T14:26:29;15.20;;;4.53;;
19339;SDS011;9804;52.350;6.684;2023-12-20T14:28:55;23.67;;;5.20;;
19339;SDS011;9804;52.350;6.684;2023-12-20T14:31:20;26.20;;;4.55;;
19339;SDS011;9804;52.350;6.684;2023-12-20T14:33:47;23.13;;;4.80;;
19339;SDS011;9804;52.350;6.684;2023-12-20T14:36:14;21.17;;;4.13;;
19339;SDS011;9804;52.350;6.684;2023-12-20T14:38:39;20.20;;;4.35;;
19339;SDS011;9804;52.350;6.684;2023-12-20T14:41:06;20.33;;;3.80;;
19339;SDS011;9804;52.350;6.684;2023-12-20T14:43:35;24.53;;;3.93;;
19339;SDS011;9804;52.350;6.684;2023-12-20T14:46:00;22.37;;;4.10;;